sensor_id;sensor_type;location;lat;lon;timestamp;P1;durP1;ratioP1;P2;durP2;ratioP2
43142;SDS011;28750;59.842;17.584;2024-01-30T00:00:07;31.48;;;13.10;;
43142;SDS011;28750;59.842;17.584;2024-01-30T00:02:34;24.98;;;10.43;;
43142;SDS011;28750;59.842;17.584;2024-01-30T00:05:01;26.63;;;11.55;;
43142;SDS011;28750;59.842;17.584;2024-01-30T00:07:30;23.50;;;8.80;;
43142;SDS011;28750;59.842;17.584;2024-01-30T00:09:57;28.80;;;10.07;;
43142;SDS011;28750;59.842;17.584;2024-01-30T00:12:24;23.30;;;10.48;;
43142;SDS011;28750;59.842;17.584;2024-01-30T00:14:52;22.00;;;10.00;;
43142;SDS011;28750;59.842;17.584;2024-01-30T00:17:19;18.23;;;9.20;;
43142;SDS011;28750;59.842;17.584;2024-01-30T00:19:47;23.50;;;10.02;;
43142;SDS011;28750;59.842;17.584;2024-01-30T00:22:14;23.17;;;9.43;;
43142;SDS011;28750;59.842;17.584;2024-01-30T00:24:41;26.50;;;11.85;;
43142;SDS011;28750;59.842;17.584;2024-01-30T00:27:08;28.75;;;11.02;;
43142;SDS011;28750;59.842;17.584;2024-01-30T00:29:36;34.45;;;12.25;;
43142;SDS011;28750;59.842;17.584;2024-01-30T00:32:03;26.55;;;10.52;;
43142;SDS011;28750;59.842;17.584;2024-01-30T00:34:30;31.33;;;11.57;;
43142;SDS011;28750;59.842;17.584;2024-01-30T00:36:58;20.85;;;9.70;;
43142;SDS011;28750;59.842;17.584;2024-01-30T00:39:25;30.40;;;11.65;;
43142;SDS011;28750;59.842;17.584;2024-01-30T00:41:52;40.33;;;12.43;;
43142;SDS011;28750;59.842;17.584;2024-01-30T00:44:19;48.38;;;11.68;;
43142;SDS011;28750;59.842;17.584;2024-01-30T00:46:47;57.92;;;13.15;;
43142;SDS011;28750;59.842;17.584;2024-01-30T00:49:14;34.88;;;11.88;;
43142;SDS011;28750;59.842;17.584;2024-01-30T00:51:41;32.15;;;11.43;;
43142;SDS011;28750;59.842;17.584;2024-01-30T00:54:08;37.00;;;13.70;;
43142;SDS011;28750;59.842;17.584;2024-01-30T00:56:35;53.40;;;13.20;;
43142;SDS011;28750;59.842;17.584;2024-01-30T00:59:03;36.13;;;11.70;;
43142;SDS011;28750;59.842;17.584;2024-01-30T01:01:30;32.58;;;11.48;;
43142;SDS011;28750;59.842;17.584;2024-01-30T01:03:57;39.67;;;12.77;;
43142;SDS011;28750;59.842;17.584;2024-01-30T01:06:24;34.92;;;11.30;;
43142;SDS011;28750;59.842;17.584;2024-01-30T01:08:51;24.23;;;10.45;;
43142;SDS011;28750;59.842;17.584;2024-01-30T01:11:18;29.27;;;10.88;;
43142;SDS011;28750;59.842;17.584;2024-01-30T01:13:45;24.25;;;9.73;;
43142;SDS011;28750;59.842;17.584;2024-01-30T01:16:12;26.35;;;10.82;;
43142;SDS011;28750;59.842;17.584;2024-01-30T01:18:39;24.67;;;10.80;;
43142;SDS011;28750;59.842;17.584;2024-01-30T01:21:07;23.05;;;10.77;;
43142;SDS011;28750;59.842;17.584;2024-01-30T01:23:34;22.15;;;9.85;;
43142;SDS011;28750;59.842;17.584;2024-01-30T01:26:01;30.20;;;10.88;;
43142;SDS011;28750;59.842;17.584;2024-01-30T01:28:28;28.00;;;10.02;;
43142;SDS011;28750;59.842;17.584;2024-01-30T01:30:55;27.08;;;11.55;;
43142;SDS011;28750;59.842;17.584;2024-01-30T01:33:30;26.80;;;10.88;;
43142;SDS011;28750;59.842;17.584;2024-01-30T01:35:59;30.02;;;11.55;;
43142;SDS011;28750;59.842;17.584;2024-01-30T01:38:28;19.92;;;9.38;;
43142;SDS011;28750;59.842;17.584;2024-01-30T01:40:55;14.45;;;8.57;;
43142;SDS011;28750;59.842;17.584;2024-01-30T01:43:22;14.48;;;8.90;;
43142;SDS011;28750;59.842;17.584;2024-01-30T01:45:49;11.90;;;8.55;;
43142;SDS011;28750;59.842;17.584;2024-01-30T01:48:16;14.85;;;9.48;;
43142;SDS011;28750;59.842;17.584;2024-01-30T01:50:44;12.40;;;8.90;;
43142;SDS011;28750;59.842;17.584;2024-01-30T01:53:11;13.48;;;9.05;;
43142;SDS011;28750;59.842;17.584;2024-01-30T01:55:39;14.30;;;9.25;;
43142;SDS011;28750;59.842;17.584;2024-01-30T01:58:07;16.92;;;8.88;;
43142;SDS011;28750;59.842;17.584;2024-01-30T02:00:35;45.38;;;10.90;;
43142;SDS011;28750;59.842;17.584;2024-01-30T02:03:05;32.22;;;11.40;;
43142;SDS011;28750;59.842;17.584;2024-01-30T02:05:33;12.68;;;8.43;;
43142;SDS011;28750;59.842;17.584;2024-01-30T02:08:01;12.88;;;8.40;;
43142;SDS011;28750;59.842;17.584;2024-01-30T02:10:28;14.80;;;8.73;;
43142;SDS011;28750;59.842;17.584;2024-01-30T02:12:55;17.23;;;8.80;;
43142;SDS011;28750;59.842;17.584;2024-01-30T02:15:22;12.85;;;8.13;;
43142;SDS011;28750;59.842;17.584;2024-01-30T02:17:49;18.15;;;9.82;;
43142;SDS011;28750;59.842;17.584;2024-01-30T02:20:16;20.35;;;9.82;;
43142;SDS011;28750;59.842;17.584;2024-01-30T02:22:43;19.48;;;9.75;;
43142;SDS011;28750;59.842;17.584;2024-01-30T02:25:11;14.68;;;8.38;;
43142;SDS011;28750;59.842;17.584;2024-01-30T02:27:38;20.77;;;10.85;;
43142;SDS011;28750;59.842;17.584;2024-01-30T02:30:05;13.20;;;8.02;;
43142;SDS011;28750;59.842;17.584;2024-01-30T02:32:33;17.15;;;8.90;;
43142;SDS011;28750;59.842;17.584;2024-01-30T02:35:00;21.13;;;8.02;;
43142;SDS011;28750;59.842;17.584;2024-01-30T02:37:27;14.27;;;8.32;;
43142;SDS011;28750;59.842;17.584;2024-01-30T02:39:54;16.73;;;7.55;;
43142;SDS011;28750;59.842;17.584;2024-01-30T02:42:21;18.80;;;8.77;;
43142;SDS011;28750;59.842;17.584;2024-01-30T02:44:48;15.77;;;9.55;;
43142;SDS011;28750;59.842;17.584;2024-01-30T02:47:15;13.80;;;8.68;;
43142;SDS011;28750;59.842;17.584;2024-01-30T02:49:42;14.68;;;9.15;;
43142;SDS011;28750;59.842;17.584;2024-01-30T02:52:10;15.73;;;9.52;;
43142;SDS011;28750;59.842;17.584;2024-01-30T02:54:37;11.48;;;7.70;;
43142;SDS011;28750;59.842;17.584;2024-01-30T02:57:04;12.27;;;8.32;;
43142;SDS011;28750;59.842;17.584;2024-01-30T02:59:31;11.57;;;7.97;;
43142;SDS011;28750;59.842;17.584;2024-01-30T03:02:01;21.65;;;10.18;;
43142;SDS011;28750;59.842;17.584;2024-01-30T03:04:28;16.45;;;9.63;;
43142;SDS011;28750;59.842;17.584;2024-01-30T03:06:55;16.58;;;9.93;;
43142;SDS011;28750;59.842;17.584;2024-01-30T03:09:22;10.13;;;7.50;;
43142;SDS011;28750;59.842;17.584;2024-01-30T03:11:50;10.15;;;7.55;;
43142;SDS011;28750;59.842;17.584;2024-01-30T03:14:17;8.85;;;7.07;;
43142;SDS011;28750;59.842;17.584;2024-01-30T03:16:44;10.40;;;7.80;;
43142;SDS011;28750;59.842;17.584;2024-01-30T03:19:11;11.68;;;8.07;;
43142;SDS011;28750;59.842;17.584;2024-01-30T03:21:38;21.50;;;8.32;;
43142;SDS011;28750;59.842;17.584;2024-01-30T03:24:05;12.15;;;8.32;;
43142;SDS011;28750;59.842;17.584;2024-01-30T03:26:33;9.70;;;6.93;;
43142;SDS011;28750;59.842;17.584;2024-01-30T03:29:00;9.45;;;7.03;;
43142;SDS011;28750;59.842;17.584;2024-01-30T03:31:27;11.35;;;7.97;;
43142;SDS011;28750;59.842;17.584;2024-01-30T03:33:54;12.32;;;7.68;;
43142;SDS011;28750;59.842;17.584;2024-01-30T03:36:21;12.38;;;8.65;;
43142;SDS011;28750;59.842;17.584;2024-01-30T03:38:48;11.70;;;7.85;;
43142;SDS011;28750;59.842;17.584;2024-01-30T03:41:15;12.05;;;7.88;;
43142;SDS011;28750;59.842;17.584;2024-01-30T03:43:43;13.63;;;7.88;;
43142;SDS011;28750;59.842;17.584;2024-01-30T03:46:11;32.95;;;9.23;;
43142;SDS011;28750;59.842;17.584;2024-01-30T03:48:39;12.93;;;7.82;;
43142;SDS011;28750;59.842;17.584;2024-01-30T03:51:06;7.45;;;5.78;;
43142;SDS011;28750;59.842;17.584;2024-01-30T03:53:33;8.05;;;6.47;;
43142;SDS011;28750;59.842;17.584;2024-01-30T03:56:00;9.88;;;7.10;;
43142;SDS011;28750;59.842;17.584;2024-01-30T03:58:28;11.88;;;8.32;;
43142;SDS011;28750;59.842;17.584;2024-01-30T04:00:55;12.90;;;8.82;;
43142;SDS011;28750;59.842;17.584;2024-01-30T04:03:22;16.80;;;8.50;;
43142;SDS011;28750;59.842;17.584;2024-01-30T04:05:49;11.68;;;7.15;;
43142;SDS011;28750;59.842;17.584;2024-01-30T04:08:18;12.00;;;7.18;;
43142;SDS011;28750;59.842;17.584;2024-01-30T04:10:45;11.52;;;7.47;;
43142;SDS011;28750;59.842;17.584;2024-01-30T04:13:13;13.75;;;7.88;;
43142;SDS011;28750;59.842;17.584;2024-01-30T04:15:40;13.35;;;8.07;;
43142;SDS011;28750;59.842;17.584;2024-01-30T04:18:07;11.20;;;8.30;;
43142;SDS011;28750;59.842;17.584;2024-01-30T04:20:34;14.90;;;8.32;;
43142;SDS011;28750;59.842;17.584;2024-01-30T04:23:01;17.65;;;8.93;;
43142;SDS011;28750;59.842;17.584;2024-01-30T04:25:29;20.25;;;9.45;;
43142;SDS011;28750;59.842;17.584;2024-01-30T04:27:56;22.13;;;9.45;;
43142;SDS011;28750;59.842;17.584;2024-01-30T04:30:23;27.55;;;10.82;;
43142;SDS011;28750;59.842;17.584;2024-01-30T04:32:50;17.00;;;8.95;;
43142;SDS011;28750;59.842;17.584;2024-01-30T04:35:17;21.70;;;9.65;;
43142;SDS011;28750;59.842;17.584;2024-01-30T04:37:45;18.40;;;9.20;;
43142;SDS011;28750;59.842;17.584;2024-01-30T04:40:12;25.38;;;9.90;;
43142;SDS011;28750;59.842;17.584;2024-01-30T04:42:40;22.17;;;9.68;;
43142;SDS011;28750;59.842;17.584;2024-01-30T04:45:07;112.85;;;13.82;;
43142;SDS011;28750;59.842;17.584;2024-01-30T04:47:34;72.47;;;12.25;;
43142;SDS011;28750;59.842;17.584;2024-01-30T04:50:02;107.25;;;14.73;;
43142;SDS011;28750;59.842;17.584;2024-01-30T04:52:29;39.13;;;15.13;;
43142;SDS011;28750;59.842;17.584;2024-01-30T04:54:56;19.15;;;10.30;;
43142;SDS011;28750;59.842;17.584;2024-01-30T04:57:24;27.10;;;12.18;;
43142;SDS011;28750;59.842;17.584;2024-01-30T04:59:51;23.60;;;12.02;;
43142;SDS011;28750;59.842;17.584;2024-01-30T05:02:18;26.05;;;11.73;;
43142;SDS011;28750;59.842;17.584;2024-01-30T05:04:45;15.25;;;8.73;;
43142;SDS011;28750;59.842;17.584;2024-01-30T05:07:12;16.50;;;9.70;;
43142;SDS011;28750;59.842;17.584;2024-01-30T05:09:39;17.92;;;9.82;;
43142;SDS011;28750;59.842;17.584;2024-01-30T05:12:06;16.33;;;9.20;;
43142;SDS011;28750;59.842;17.584;2024-01-30T05:14:34;26.77;;;10.50;;
43142;SDS011;28750;59.842;17.584;2024-01-30T05:17:01;23.52;;;9.45;;
43142;SDS011;28750;59.842;17.584;2024-01-30T05:19:28;21.42;;;9.85;;
43142;SDS011;28750;59.842;17.584;2024-01-30T05:21:56;21.58;;;9.77;;
43142;SDS011;28750;59.842;17.584;2024-01-30T05:24:23;23.40;;;10.10;;
43142;SDS011;28750;59.842;17.584;2024-01-30T05:26:50;35.58;;;10.82;;
43142;SDS011;28750;59.842;17.584;2024-01-30T05:29:17;34.75;;;10.93;;
43142;SDS011;28750;59.842;17.584;2024-01-30T05:31:45;48.15;;;11.18;;
43142;SDS011;28750;59.842;17.584;2024-01-30T05:34:12;19.45;;;9.98;;
43142;SDS011;28750;59.842;17.584;2024-01-30T05:36:39;36.25;;;10.38;;
43142;SDS011;28750;59.842;17.584;2024-01-30T05:39:06;31.35;;;9.90;;
43142;SDS011;28750;59.842;17.584;2024-01-30T05:41:33;24.67;;;9.77;;
43142;SDS011;28750;59.842;17.584;2024-01-30T05:44:00;58.75;;;10.15;;
43142;SDS011;28750;59.842;17.584;2024-01-30T05:46:28;30.63;;;8.30;;
43142;SDS011;28750;59.842;17.584;2024-01-30T05:48:55;29.38;;;9.57;;
43142;SDS011;28750;59.842;17.584;2024-01-30T05:51:22;29.52;;;9.32;;
43142;SDS011;28750;59.842;17.584;2024-01-30T05:53:49;58.05;;;11.10;;
43142;SDS011;28750;59.842;17.584;2024-01-30T05:56:16;26.92;;;10.60;;
43142;SDS011;28750;59.842;17.584;2024-01-30T05:58:42;13.70;;;9.10;;
43142;SDS011;28750;59.842;17.584;2024-01-30T06:01:09;28.70;;;8.32;;
43142;SDS011;28750;59.842;17.584;2024-01-30T06:03:36;16.30;;;9.27;;
43142;SDS011;28750;59.842;17.584;2024-01-30T06:06:04;14.70;;;8.45;;
43142;SDS011;28750;59.842;17.584;2024-01-30T06:08:31;17.17;;;9.23;;
43142;SDS011;28750;59.842;17.584;2024-01-30T06:10:59;18.40;;;8.73;;
43142;SDS011;28750;59.842;17.584;2024-01-30T06:13:26;17.00;;;8.50;;
43142;SDS011;28750;59.842;17.584;2024-01-30T06:15:56;16.50;;;7.70;;
43142;SDS011;28750;59.842;17.584;2024-01-30T06:18:24;19.05;;;9.63;;
43142;SDS011;28750;59.842;17.584;2024-01-30T06:20:52;14.10;;;7.88;;
43142;SDS011;28750;59.842;17.584;2024-01-30T06:23:19;21.88;;;8.80;;
43142;SDS011;28750;59.842;17.584;2024-01-30T06:25:46;29.13;;;10.60;;
43142;SDS011;28750;59.842;17.584;2024-01-30T06:28:13;19.23;;;8.85;;
43142;SDS011;28750;59.842;17.584;2024-01-30T06:30:40;22.33;;;9.13;;
43142;SDS011;28750;59.842;17.584;2024-01-30T06:33:07;26.67;;;9.88;;
43142;SDS011;28750;59.842;17.584;2024-01-30T06:35:34;29.80;;;9.77;;
43142;SDS011;28750;59.842;17.584;2024-01-30T06:38:05;24.67;;;8.43;;
43142;SDS011;28750;59.842;17.584;2024-01-30T06:40:32;27.08;;;8.18;;
43142;SDS011;28750;59.842;17.584;2024-01-30T06:42:59;32.05;;;7.88;;
43142;SDS011;28750;59.842;17.584;2024-01-30T06:45:26;13.02;;;6.72;;
43142;SDS011;28750;59.842;17.584;2024-01-30T06:47:53;16.15;;;6.57;;
43142;SDS011;28750;59.842;17.584;2024-01-30T06:50:20;12.77;;;6.93;;
43142;SDS011;28750;59.842;17.584;2024-01-30T06:52:47;12.93;;;7.35;;
43142;SDS011;28750;59.842;17.584;2024-01-30T06:55:15;9.52;;;5.68;;
43142;SDS011;28750;59.842;17.584;2024-01-30T06:57:42;10.30;;;6.32;;
43142;SDS011;28750;59.842;17.584;2024-01-30T07:00:09;12.75;;;6.90;;
43142;SDS011;28750;59.842;17.584;2024-01-30T07:02:37;10.48;;;6.53;;
43142;SDS011;28750;59.842;17.584;2024-01-30T07:05:04;12.52;;;7.55;;
43142;SDS011;28750;59.842;17.584;2024-01-30T07:07:31;10.88;;;6.60;;
43142;SDS011;28750;59.842;17.584;2024-01-30T07:09:59;10.25;;;6.40;;
43142;SDS011;28750;59.842;17.584;2024-01-30T07:12:26;12.20;;;7.35;;
43142;SDS011;28750;59.842;17.584;2024-01-30T07:14:53;11.85;;;7.18;;
43142;SDS011;28750;59.842;17.584;2024-01-30T07:17:21;13.00;;;7.47;;
43142;SDS011;28750;59.842;17.584;2024-01-30T07:19:48;12.10;;;8.07;;
43142;SDS011;28750;59.842;17.584;2024-01-30T07:22:15;15.38;;;7.25;;
43142;SDS011;28750;59.842;17.584;2024-01-30T07:24:43;13.60;;;8.45;;
43142;SDS011;28750;59.842;17.584;2024-01-30T07:27:13;13.95;;;7.50;;
43142;SDS011;28750;59.842;17.584;2024-01-30T07:29:42;12.82;;;7.40;;
43142;SDS011;28750;59.842;17.584;2024-01-30T07:32:10;11.82;;;7.97;;
43142;SDS011;28750;59.842;17.584;2024-01-30T07:34:37;11.15;;;6.82;;
43142;SDS011;28750;59.842;17.584;2024-01-30T07:37:04;13.52;;;7.20;;
43142;SDS011;28750;59.842;17.584;2024-01-30T07:39:33;16.33;;;8.68;;
43142;SDS011;28750;59.842;17.584;2024-01-30T07:42:00;14.65;;;7.53;;
43142;SDS011;28750;59.842;17.584;2024-01-30T07:44:28;29.35;;;6.32;;
43142;SDS011;28750;59.842;17.584;2024-01-30T07:46:55;14.02;;;7.65;;
43142;SDS011;28750;59.842;17.584;2024-01-30T07:49:22;13.32;;;8.02;;
43142;SDS011;28750;59.842;17.584;2024-01-30T07:51:49;142.23;;;15.50;;
43142;SDS011;28750;59.842;17.584;2024-01-30T07:54:16;12.10;;;7.38;;
43142;SDS011;28750;59.842;17.584;2024-01-30T07:56:43;10.88;;;7.53;;
43142;SDS011;28750;59.842;17.584;2024-01-30T07:59:11;18.67;;;9.02;;
43142;SDS011;28750;59.842;17.584;2024-01-30T08:01:38;22.25;;;9.95;;
43142;SDS011;28750;59.842;17.584;2024-01-30T08:04:05;13.52;;;7.47;;
43142;SDS011;28750;59.842;17.584;2024-01-30T08:06:32;13.05;;;7.38;;
43142;SDS011;28750;59.842;17.584;2024-01-30T08:08:59;21.65;;;8.95;;
43142;SDS011;28750;59.842;17.584;2024-01-30T08:11:27;21.88;;;8.35;;
43142;SDS011;28750;59.842;17.584;2024-01-30T08:13:54;32.70;;;9.75;;
43142;SDS011;28750;59.842;17.584;2024-01-30T08:16:21;14.32;;;8.52;;
43142;SDS011;28750;59.842;17.584;2024-01-30T08:18:49;14.70;;;8.18;;
43142;SDS011;28750;59.842;17.584;2024-01-30T08:21:16;10.68;;;7.55;;
43142;SDS011;28750;59.842;17.584;2024-01-30T08:23:43;10.02;;;6.97;;
43142;SDS011;28750;59.842;17.584;2024-01-30T08:26:10;12.50;;;7.78;;
43142;SDS011;28750;59.842;17.584;2024-01-30T08:28:37;12.57;;;7.05;;
43142;SDS011;28750;59.842;17.584;2024-01-30T08:31:04;14.95;;;7.05;;
43142;SDS011;28750;59.842;17.584;2024-01-30T08:33:31;17.13;;;7.30;;
43142;SDS011;28750;59.842;17.584;2024-01-30T08:35:58;21.75;;;7.22;;
43142;SDS011;28750;59.842;17.584;2024-01-30T08:38:25;19.90;;;7.88;;
43142;SDS011;28750;59.842;17.584;2024-01-30T08:40:52;19.30;;;6.55;;
43142;SDS011;28750;59.842;17.584;2024-01-30T08:43:19;15.85;;;6.90;;
43142;SDS011;28750;59.842;17.584;2024-01-30T08:45:46;13.80;;;7.45;;
43142;SDS011;28750;59.842;17.584;2024-01-30T08:48:13;11.18;;;6.55;;
43142;SDS011;28750;59.842;17.584;2024-01-30T08:50:40;15.05;;;7.30;;
43142;SDS011;28750;59.842;17.584;2024-01-30T08:53:07;12.95;;;6.70;;
43142;SDS011;28750;59.842;17.584;2024-01-30T08:55:34;26.05;;;7.22;;
43142;SDS011;28750;59.842;17.584;2024-01-30T08:58:01;15.68;;;6.47;;
43142;SDS011;28750;59.842;17.584;2024-01-30T09:00:30;19.63;;;6.10;;
43142;SDS011;28750;59.842;17.584;2024-01-30T09:02:57;30.23;;;7.30;;
43142;SDS011;28750;59.842;17.584;2024-01-30T09:05:24;30.83;;;7.45;;
43142;SDS011;28750;59.842;17.584;2024-01-30T09:07:51;17.80;;;6.97;;
43142;SDS011;28750;59.842;17.584;2024-01-30T09:10:18;21.75;;;7.25;;
43142;SDS011;28750;59.842;17.584;2024-01-30T09:12:45;28.95;;;7.78;;
43142;SDS011;28750;59.842;17.584;2024-01-30T09:15:13;54.72;;;7.55;;
43142;SDS011;28750;59.842;17.584;2024-01-30T09:17:40;60.15;;;7.28;;
43142;SDS011;28750;59.842;17.584;2024-01-30T09:20:07;55.17;;;8.30;;
43142;SDS011;28750;59.842;17.584;2024-01-30T09:22:34;59.60;;;7.88;;
43142;SDS011;28750;59.842;17.584;2024-01-30T09:25:01;32.95;;;7.63;;
43142;SDS011;28750;59.842;17.584;2024-01-30T09:27:29;21.58;;;7.20;;
43142;SDS011;28750;59.842;17.584;2024-01-30T09:29:56;14.90;;;7.15;;
43142;SDS011;28750;59.842;17.584;2024-01-30T09:32:23;36.63;;;8.20;;
43142;SDS011;28750;59.842;17.584;2024-01-30T09:34:50;18.85;;;7.90;;
43142;SDS011;28750;59.842;17.584;2024-01-30T09:37:17;45.83;;;7.85;;
43142;SDS011;28750;59.842;17.584;2024-01-30T09:39:44;27.52;;;7.63;;
43142;SDS011;28750;59.842;17.584;2024-01-30T09:44:52;29.30;;;6.97;;
43142;SDS011;28750;59.842;17.584;2024-01-30T09:47:20;37.33;;;6.88;;
43142;SDS011;28750;59.842;17.584;2024-01-30T09:49:47;21.48;;;7.50;;
43142;SDS011;28750;59.842;17.584;2024-01-30T09:52:15;24.85;;;7.22;;
43142;SDS011;28750;59.842;17.584;2024-01-30T09:54:42;64.57;;;9.68;;
43142;SDS011;28750;59.842;17.584;2024-01-30T09:57:11;28.90;;;8.10;;
43142;SDS011;28750;59.842;17.584;2024-01-30T09:59:38;39.67;;;8.98;;
43142;SDS011;28750;59.842;17.584;2024-01-30T10:02:08;46.47;;;7.65;;
43142;SDS011;28750;59.842;17.584;2024-01-30T10:04:36;38.38;;;8.07;;
43142;SDS011;28750;59.842;17.584;2024-01-30T10:07:03;38.05;;;7.90;;
43142;SDS011;28750;59.842;17.584;2024-01-30T10:09:33;34.55;;;8.55;;
43142;SDS011;28750;59.842;17.584;2024-01-30T10:12:01;12.85;;;7.47;;
43142;SDS011;28750;59.842;17.584;2024-01-30T10:14:28;20.75;;;7.97;;
43142;SDS011;28750;59.842;17.584;2024-01-30T10:16:57;24.08;;;8.30;;
43142;SDS011;28750;59.842;17.584;2024-01-30T10:19:24;22.08;;;8.80;;
43142;SDS011;28750;59.842;17.584;2024-01-30T10:21:52;49.55;;;8.50;;
43142;SDS011;28750;59.842;17.584;2024-01-30T10:24:23;20.02;;;7.95;;
43142;SDS011;28750;59.842;17.584;2024-01-30T10:26:51;23.80;;;8.68;;
43142;SDS011;28750;59.842;17.584;2024-01-30T10:29:18;26.30;;;8.50;;
43142;SDS011;28750;59.842;17.584;2024-01-30T10:31:45;33.67;;;8.25;;
43142;SDS011;28750;59.842;17.584;2024-01-30T10:34:13;13.50;;;7.40;;
43142;SDS011;28750;59.842;17.584;2024-01-30T10:36:40;26.13;;;8.15;;
43142;SDS011;28750;59.842;17.584;2024-01-30T10:39:08;18.00;;;7.82;;
43142;SDS011;28750;59.842;17.584;2024-01-30T10:41:38;14.43;;;7.70;;
43142;SDS011;28750;59.842;17.584;2024-01-30T10:44:10;15.20;;;7.47;;
43142;SDS011;28750;59.842;17.584;2024-01-30T10:46:38;14.85;;;8.70;;
43142;SDS011;28750;59.842;17.584;2024-01-30T10:49:07;17.30;;;8.82;;
43142;SDS011;28750;59.842;17.584;2024-01-30T10:51:36;18.58;;;8.55;;
43142;SDS011;28750;59.842;17.584;2024-01-30T10:54:05;26.27;;;9.18;;
43142;SDS011;28750;59.842;17.584;2024-01-30T10:56:33;15.00;;;7.97;;
43142;SDS011;28750;59.842;17.584;2024-01-30T10:59:01;12.68;;;7.82;;
43142;SDS011;28750;59.842;17.584;2024-01-30T11:01:29;17.73;;;8.35;;
43142;SDS011;28750;59.842;17.584;2024-01-30T11:03:57;17.67;;;8.55;;
43142;SDS011;28750;59.842;17.584;2024-01-30T11:06:24;19.92;;;8.15;;
43142;SDS011;28750;59.842;17.584;2024-01-30T11:09:02;26.88;;;8.43;;
43142;SDS011;28750;59.842;17.584;2024-01-30T11:14:25;12.23;;;7.55;;
43142;SDS011;28750;59.842;17.584;2024-01-30T11:16:52;14.30;;;8.27;;
43142;SDS011;28750;59.842;17.584;2024-01-30T11:19:23;15.95;;;8.25;;
43142;SDS011;28750;59.842;17.584;2024-01-30T11:21:57;12.88;;;8.07;;
43142;SDS011;28750;59.842;17.584;2024-01-30T11:24:24;13.70;;;7.78;;
43142;SDS011;28750;59.842;17.584;2024-01-30T11:26:58;21.88;;;7.93;;
43142;SDS011;28750;59.842;17.584;2024-01-30T11:29:27;14.38;;;7.95;;
43142;SDS011;28750;59.842;17.584;2024-01-30T11:31:55;15.32;;;8.43;;
43142;SDS011;28750;59.842;17.584;2024-01-30T11:34:24;14.40;;;8.93;;
43142;SDS011;28750;59.842;17.584;2024-01-30T11:36:58;16.67;;;9.30;;
43142;SDS011;28750;59.842;17.584;2024-01-30T11:39:31;16.63;;;9.00;;
43142;SDS011;28750;59.842;17.584;2024-01-30T11:41:59;21.53;;;9.97;;
43142;SDS011;28750;59.842;17.584;2024-01-30T11:44:26;29.83;;;11.30;;
43142;SDS011;28750;59.842;17.584;2024-01-30T11:46:53;17.90;;;9.63;;
43142;SDS011;28750;59.842;17.584;2024-01-30T11:49:20;16.77;;;9.02;;
43142;SDS011;28750;59.842;17.584;2024-01-30T11:51:48;19.95;;;10.95;;
43142;SDS011;28750;59.842;17.584;2024-01-30T11:54:15;18.48;;;9.38;;
43142;SDS011;28750;59.842;17.584;2024-01-30T11:56:43;15.25;;;9.00;;
43142;SDS011;28750;59.842;17.584;2024-01-30T11:59:10;24.13;;;9.88;;
43142;SDS011;28750;59.842;17.584;2024-01-30T12:01:37;15.90;;;10.23;;
43142;SDS011;28750;59.842;17.584;2024-01-30T12:04:04;14.57;;;8.88;;
43142;SDS011;28750;59.842;17.584;2024-01-30T12:06:34;19.00;;;10.88;;
43142;SDS011;28750;59.842;17.584;2024-01-30T12:09:02;16.58;;;8.48;;
43142;SDS011;28750;59.842;17.584;2024-01-30T12:11:30;13.00;;;7.65;;
43142;SDS011;28750;59.842;17.584;2024-01-30T12:13:57;15.13;;;8.73;;
43142;SDS011;28750;59.842;17.584;2024-01-30T12:16:25;19.00;;;10.00;;
43142;SDS011;28750;59.842;17.584;2024-01-30T12:18:59;20.88;;;9.82;;
43142;SDS011;28750;59.842;17.584;2024-01-30T12:21:27;19.48;;;9.65;;
43142;SDS011;28750;59.842;17.584;2024-01-30T12:23:58;24.65;;;11.43;;
43142;SDS011;28750;59.842;17.584;2024-01-30T12:26:26;23.60;;;11.18;;
43142;SDS011;28750;59.842;17.584;2024-01-30T12:28:54;21.23;;;10.00;;
43142;SDS011;28750;59.842;17.584;2024-01-30T12:31:30;20.00;;;10.20;;
43142;SDS011;28750;59.842;17.584;2024-01-30T12:33:59;17.48;;;10.98;;
43142;SDS011;28750;59.842;17.584;2024-01-30T12:36:28;19.15;;;10.50;;
43142;SDS011;28750;59.842;17.584;2024-01-30T12:38:56;18.42;;;10.35;;
43142;SDS011;28750;59.842;17.584;2024-01-30T12:41:23;21.58;;;10.55;;
43142;SDS011;28750;59.842;17.584;2024-01-30T12:43:54;21.50;;;9.73;;
43142;SDS011;28750;59.842;17.584;2024-01-30T12:46:21;18.23;;;9.82;;
43142;SDS011;28750;59.842;17.584;2024-01-30T12:48:53;22.65;;;10.45;;
43142;SDS011;28750;59.842;17.584;2024-01-30T12:51:20;19.80;;;9.75;;
43142;SDS011;28750;59.842;17.584;2024-01-30T12:53:48;20.38;;;10.00;;
43142;SDS011;28750;59.842;17.584;2024-01-30T12:56:15;32.47;;;10.90;;
43142;SDS011;28750;59.842;17.584;2024-01-30T12:58:42;57.78;;;16.63;;
43142;SDS011;28750;59.842;17.584;2024-01-30T13:01:09;30.45;;;12.30;;
43142;SDS011;28750;59.842;17.584;2024-01-30T13:03:36;23.38;;;11.55;;
43142;SDS011;28750;59.842;17.584;2024-01-30T13:06:03;28.52;;;11.77;;
43142;SDS011;28750;59.842;17.584;2024-01-30T13:08:31;32.40;;;13.98;;
43142;SDS011;28750;59.842;17.584;2024-01-30T13:10:58;26.30;;;12.35;;
43142;SDS011;28750;59.842;17.584;2024-01-30T13:13:25;28.75;;;12.07;;
43142;SDS011;28750;59.842;17.584;2024-01-30T13:15:52;24.50;;;11.20;;
43142;SDS011;28750;59.842;17.584;2024-01-30T13:18:19;22.98;;;11.07;;
43142;SDS011;28750;59.842;17.584;2024-01-30T13:20:46;22.23;;;11.07;;
43142;SDS011;28750;59.842;17.584;2024-01-30T13:23:13;55.58;;;16.08;;
43142;SDS011;28750;59.842;17.584;2024-01-30T13:25:40;27.77;;;12.38;;
43142;SDS011;28750;59.842;17.584;2024-01-30T13:28:07;30.77;;;13.65;;
43142;SDS011;28750;59.842;17.584;2024-01-30T13:30:34;23.85;;;10.68;;
43142;SDS011;28750;59.842;17.584;2024-01-30T13:33:02;23.48;;;11.68;;
43142;SDS011;28750;59.842;17.584;2024-01-30T13:35:29;25.05;;;11.98;;
43142;SDS011;28750;59.842;17.584;2024-01-30T13:37:56;22.17;;;10.65;;
43142;SDS011;28750;59.842;17.584;2024-01-30T13:40:23;23.75;;;11.73;;
43142;SDS011;28750;59.842;17.584;2024-01-30T13:42:50;20.38;;;11.20;;
43142;SDS011;28750;59.842;17.584;2024-01-30T13:45:17;23.92;;;10.90;;
43142;SDS011;28750;59.842;17.584;2024-01-30T13:47:44;22.40;;;11.48;;
43142;SDS011;28750;59.842;17.584;2024-01-30T13:50:11;29.80;;;13.05;;
43142;SDS011;28750;59.842;17.584;2024-01-30T13:52:42;25.33;;;11.98;;
43142;SDS011;28750;59.842;17.584;2024-01-30T13:55:09;23.17;;;11.05;;
43142;SDS011;28750;59.842;17.584;2024-01-30T13:57:37;23.63;;;11.40;;
43142;SDS011;28750;59.842;17.584;2024-01-30T14:00:04;43.70;;;12.02;;
43142;SDS011;28750;59.842;17.584;2024-01-30T14:02:32;28.63;;;12.55;;
43142;SDS011;28750;59.842;17.584;2024-01-30T14:04:59;25.48;;;12.48;;
43142;SDS011;28750;59.842;17.584;2024-01-30T14:07:26;29.30;;;13.32;;
43142;SDS011;28750;59.842;17.584;2024-01-30T14:09:53;30.60;;;13.02;;
43142;SDS011;28750;59.842;17.584;2024-01-30T14:12:21;26.13;;;12.63;;
43142;SDS011;28750;59.842;17.584;2024-01-30T14:14:48;30.50;;;13.27;;
43142;SDS011;28750;59.842;17.584;2024-01-30T14:17:15;26.35;;;12.38;;
43142;SDS011;28750;59.842;17.584;2024-01-30T14:19:42;24.30;;;11.95;;
43142;SDS011;28750;59.842;17.584;2024-01-30T14:22:09;38.40;;;12.95;;
43142;SDS011;28750;59.842;17.584;2024-01-30T14:24:36;29.85;;;11.85;;